Time;durP1;ratioP1;P1;durP2;ratioP2;P2;SDS_P1;SDS_P2;PMS_P1;PMS_P2;Temp;Humidity;BMP_temperature;BMP_pressure;BME280_temperature;BME280_humidity;BME280_pressure;Samples;Min_cycle;Max_cycle;Signal;HPM_P1;HPM_P2
2023/04/08 00:00:06;;;;;;;10.70;5.63;;;7.40;99.90;;;;;;5011970;28;20244;-72
2023/04/08 00:02:32;;;;;;;10.27;4.53;;;7.30;99.90;;;;;;5011288;28;20182;-72
2023/04/08 00:04:58;;;;;;;8.13;4.17;;;7.20;99.90;;;;;;5011706;28;20538;-72
2023/04/08 00:07:24;;;;;;;10.90;4.50;;;7.20;99.90;;;;;;5011151;28;20232;-72
2023/04/08 00:09:50;;;;;;;11.97;4.47;;;7.20;99.90;;;;;;5010658;28;20182;-72
2023/04/08 00:12:15;;;;;;;11.27;3.67;;;7.20;99.90;;;;;;5011845;28;20175;-72
2023/04/08 00:14:41;;;;;;;8.90;3.97;;;7.20;99.90;;;;;;5011234;28;20170;-72
2023/04/08 00:17:07;;;;;;;8.07;4.13;;;7.20;99.90;;;;;;5012035;28;20224;-72
2023/04/08 00:19:33;;;;;;;8.67;4.50;;;7.10;99.90;;;;;;5012142;28;20186;-72
2023/04/08 00:21:59;;;;;;;11.63;4.90;;;7.30;99.90;;;;;;5012169;28;20182;-72
2023/04/08 00:24:24;;;;;;;11.30;5.33;;;7.10;99.90;;;;;;5011749;28;20618;-72
2023/04/08 00:26:51;;;;;;;10.33;5.33;;;7.10;99.90;;;;;;5011345;28;20265;-72
2023/04/08 00:29:17;;;;;;;9.70;4.93;;;7.00;99.90;;;;;;5010170;28;20605;-73
2023/04/08 00:31:42;;;;;;;11.03;5.87;;;7.00;99.90;;;;;;5012358;28;20219;-86
2023/04/08 00:34:08;;;;;;;11.20;4.63;;;6.90;99.90;;;;;;5012690;28;20202;-73
2023/04/08 00:36:35;;;;;;;16.10;4.80;;;7.00;99.90;;;;;;5011586;28;20544;-73
2023/04/08 00:39:01;;;;;;;8.40;4.10;;;7.00;99.90;;;;;;5003938;28;20174;-73
2023/04/08 00:41:26;;;;;;;13.77;4.80;;;7.00;99.90;;;;;;5011493;28;20260;-73
2023/04/08 00:43:53;;;;;;;11.30;4.70;;;6.80;99.90;;;;;;5010483;28;20182;-73
2023/04/08 00:46:19;;;;;;;12.13;5.60;;;5.80;99.90;;;;;;5009381;28;20221;-72
2023/04/08 00:48:45;;;;;;;11.70;5.00;;;6.70;99.90;;;;;;5011690;28;20174;-72
2023/04/08 00:51:11;;;;;;;13.93;5.90;;;6.60;99.90;;;;;;5011122;28;20699;-71
2023/04/08 00:53:37;;;;;;;16.23;5.90;;;6.60;99.90;;;;;;5011716;28;20273;-72
2023/04/08 00:56:03;;;;;;;15.70;5.53;;;6.60;99.90;;;;;;5009962;28;20261;-71
2023/04/08 00:58:29;;;;;;;15.03;5.40;;;6.60;99.90;;;;;;5008836;28;20187;-73
2023/04/08 01:01:02;;;;;;;13.77;5.77;;;6.50;99.90;;;;;;5008955;28;20657;-74
2023/04/08 01:03:54;;;;;;;14.27;5.77;;;4.20;99.90;;;;;;5010027;28;20182;-73
2023/04/08 01:06:35;;;;;;;15.57;4.60;;;7.70;99.90;;;;;;5006899;28;20182;-73
2023/04/08 01:09:04;;;;;;;12.57;5.00;;;6.60;99.90;;;;;;5010587;28;20178;-74
2023/04/08 01:11:33;;;;;;;12.37;4.73;;;6.60;99.90;;;;;;5010909;28;20182;-72
2023/04/08 01:14:05;;;;;;;11.67;4.93;;;6.50;99.90;;;;;;5009341;28;20182;-74
2023/04/08 01:16:32;;;;;;;13.00;4.83;;;6.60;99.90;;;;;;5010223;28;20218;-74
2023/04/08 01:18:58;;;;;;;11.87;5.10;;;6.60;99.90;;;;;;5011093;28;20236;-72
2023/04/08 01:21:27;;;;;;;15.20;5.27;;;6.70;99.90;;;;;;5010210;28;20223;-71
2023/04/08 01:24:10;;;;;;;9.50;4.90;;;6.50;99.90;;;;;;5010378;28;20170;-71
2023/04/08 01:26:36;;;;;;;18.80;4.83;;;6.30;99.90;;;;;;5011099;28;20218;-72
2023/04/08 01:29:03;;;;;;;11.13;4.80;;;6.30;99.90;;;;;;5010407;28;20710;-72
2023/04/08 01:31:30;;;;;;;14.20;5.23;;;6.30;99.90;;;;;;5010652;28;20265;-72
2023/04/08 01:33:58;;;;;;;14.10;5.37;;;6.40;99.90;;;;;;5010964;28;20198;-71
2023/04/08 01:36:25;;;;;;;10.73;4.50;;;6.30;99.90;;;;;;5009853;28;20194;-72
2023/04/08 01:38:51;;;;;;;10.17;4.70;;;;;;;;;;5010806;28;20193;-72
2023/04/08 01:41:20;;;;;;;12.37;4.70;;;6.10;99.90;;;;;;5010710;28;20225;-71
2023/04/08 01:43:47;;;;;;;10.10;3.87;;;6.00;99.90;;;;;;5007291;28;20645;-71
2023/04/08 01:46:14;;;;;;;11.23;4.33;;;6.20;99.90;;;;;;5010387;28;20174;-72
2023/04/08 01:48:40;;;;;;;11.03;4.07;;;6.10;99.90;;;;;;5008594;28;20178;-72
2023/04/08 01:51:07;;;;;;;12.10;4.47;;;6.10;99.90;;;;;;5009541;28;20214;-71
2023/04/08 01:53:33;;;;;;;8.13;4.23;;;6.20;99.90;;;;;;5008176;28;20189;-73
2023/04/08 01:56:10;;;;;;;11.23;4.93;;;6.00;99.90;;;;;;5010524;28;20171;-75
2023/04/08 01:58:39;;;;;;;14.17;5.03;;;5.90;99.90;;;;;;5009770;28;20190;-74
2023/04/08 02:01:09;;;;;;;8.77;4.60;;;5.80;99.90;;;;;;5010180;28;20236;-73
2023/04/08 02:03:36;;;;;;;8.77;4.43;;;5.70;99.90;;;;;;5006158;28;20191;-72
2023/04/08 02:06:01;;;;;;;10.00;4.60;;;5.70;99.90;;;;;;5007831;28;20681;-73
2023/04/08 02:08:27;;;;;;;10.10;5.07;;;5.70;99.90;;;;;;5008675;28;20270;-73
2023/04/08 02:10:52;;;;;;;13.20;4.20;;;5.70;99.90;;;;;;5008993;28;20170;-73
2023/04/08 02:13:18;;;;;;;9.53;3.80;;;5.70;99.90;;;;;;5008841;28;20198;-73
2023/04/08 02:15:50;;;;;;;7.70;3.80;;;5.70;99.90;;;;;;5008799;28;20175;-72
2023/04/08 02:18:23;;;;;;;7.90;3.77;;;5.70;99.90;;;;;;5006473;28;20252;-71
2023/04/08 02:21:21;;;;;;;8.07;3.73;;;5.70;99.90;;;;;;5008800;28;20301;-73
2023/04/08 02:23:50;;;;;;;7.07;3.90;;;5.70;99.90;;;;;;4997978;28;20293;-72
2023/04/08 02:26:17;;;;;;;10.43;3.60;;;5.70;99.90;;;;;;5009580;28;20182;-72
2023/04/08 02:28:44;;;;;;;8.10;4.10;;;5.70;99.90;;;;;;5008934;28;20178;-73
2023/04/08 02:31:14;;;;;;;8.20;3.33;;;5.70;99.90;;;;;;5009912;28;20645;-73
2023/04/08 02:33:41;;;;;;;7.23;4.17;;;5.60;99.90;;;;;;5010222;28;20183;-74
2023/04/08 02:36:07;;;;;;;7.70;3.50;;;5.70;99.90;;;;;;5013886;28;20174;-75
2023/04/08 02:38:33;;;;;;;10.47;4.23;;;5.70;99.90;;;;;;5012424;28;20657;-74
2023/04/08 02:40:58;;;;;;;15.33;4.37;;;5.70;99.90;;;;;;5014278;28;20166;-75
2023/04/08 02:43:30;;;;;;;10.90;4.17;;;;;;;;;;5013672;28;20529;-74
2023/04/08 02:46:02;;;;;;;8.47;4.10;;;5.50;99.90;;;;;;5013681;28;20265;-74
2023/04/08 02:48:28;;;;;;;10.17;4.43;;;5.50;99.90;;;;;;5013055;28;20266;-74
2023/04/08 02:50:53;;;;;;;13.40;5.17;;;5.60;99.90;;;;;;5013724;28;20270;-74
2023/04/08 02:53:19;;;;;;;14.47;5.30;;;5.60;99.90;;;;;;5013400;28;20222;-74
2023/04/08 02:55:44;;;;;;;12.03;5.70;;;5.50;99.90;;;;;;5012028;28;20182;-74
2023/04/08 02:58:10;;;;;;;13.43;5.87;;;5.70;99.90;;;;;;5013797;28;20693;-74
2023/04/08 03:00:38;;;;;;;10.50;5.10;;;;;;;;;;5013731;28;20630;-75
2023/04/08 03:03:05;;;;;;;14.57;5.53;;;5.40;99.90;;;;;;5013125;28;20183;-75
2023/04/08 03:05:30;;;;;;;13.60;5.47;;;5.40;99.90;;;;;;5012448;28;20181;-73
2023/04/08 03:07:56;;;;;;;17.47;5.60;;;5.40;99.90;;;;;;5011906;28;20183;-73
2023/04/08 03:10:22;;;;;;;12.90;5.00;;;5.40;99.90;;;;;;5012521;28;20233;-75
2023/04/08 03:12:48;;;;;;;11.47;4.13;;;;;;;;;;5006696;28;20657;-75
2023/04/08 03:15:13;;;;;;;10.43;4.70;;;5.40;99.90;;;;;;5012694;28;20657;-75
2023/04/08 03:17:39;;;;;;;16.50;5.13;;;5.40;99.90;;;;;;5011712;28;20309;-73
2023/04/08 03:20:06;;;;;;;13.70;5.50;;;5.30;99.90;;;;;;5012510;28;20435;-73
2023/04/08 03:22:32;;;;;;;8.90;4.80;;;5.30;99.90;;;;;;5009980;28;20178;-73
2023/04/08 03:24:57;;;;;;;12.83;5.10;;;5.30;99.90;;;;;;5011705;28;20500;-73
2023/04/08 03:27:23;;;;;;;12.20;5.20;;;5.30;99.90;;;;;;5011054;28;20684;-74
2023/04/08 03:29:49;;;;;;;10.63;4.90;;;5.40;99.90;;;;;;5009854;28;20190;-74
2023/04/08 03:32:14;;;;;;;14.00;5.43;;;5.20;99.90;;;;;;5011601;28;20192;-88
2023/04/08 03:34:40;;;;;;;13.30;4.97;;;5.30;99.90;;;;;;5012321;28;20183;-73
2023/04/08 03:37:06;;;;;;;9.77;4.73;;;5.30;99.90;;;;;;5011217;28;20607;-72
2023/04/08 03:39:32;;;;;;;10.13;4.40;;;5.20;99.90;;;;;;5006238;28;20645;-72
2023/04/08 03:41:59;;;;;;;8.67;4.43;;;5.20;99.90;;;;;;5010954;28;20198;-72
2023/04/08 03:44:25;;;;;;;9.87;4.50;;;5.20;99.90;;;;;;5012652;28;20197;-72
2023/04/08 03:46:51;;;;;;;11.07;4.30;;;5.00;99.90;;;;;;5010776;28;20201;-72
2023/04/08 03:49:17;;;;;;;10.70;4.53;;;5.10;99.90;;;;;;5012337;28;20178;-72
2023/04/08 03:51:42;;;;;;;11.10;4.20;;;4.90;99.90;;;;;;5012021;28;20222;-72
2023/04/08 03:54:08;;;;;;;9.87;3.97;;;5.00;99.90;;;;;;5012095;28;20634;-72
2023/04/08 03:56:34;;;;;;;12.30;4.50;;;;;;;;;;5010843;28;20210;-72
2023/04/08 03:59:00;;;;;;;10.57;4.10;;;4.90;99.90;;;;;;5010435;28;20224;-72
2023/04/08 04:01:25;;;;;;;10.60;4.20;;;5.10;99.90;;;;;;5011115;28;20182;-71
2023/04/08 04:03:51;;;;;;;10.83;4.00;;;4.80;99.90;;;;;;5008934;28;20701;-73
2023/04/08 04:06:17;;;;;;;14.13;4.17;;;4.80;99.90;;;;;;5012287;28;20175;-74
2023/04/08 04:08:42;;;;;;;13.70;4.50;;;4.80;99.90;;;;;;5012145;28;20597;-74
2023/04/08 04:11:08;;;;;;;10.50;4.53;;;4.80;99.90;;;;;;5011296;28;20634;-74
2023/04/08 04:13:34;;;;;;;11.40;4.30;;;4.90;99.90;;;;;;5010194;28;20201;-71
2023/04/08 04:16:00;;;;;;;10.40;4.47;;;4.90;99.90;;;;;;5009689;28;20179;-74
2023/04/08 04:18:25;;;;;;;11.17;4.20;;;5.20;99.90;;;;;;5010431;28;20187;-73
2023/04/08 04:20:51;;;;;;;13.43;4.60;;;4.90;99.90;;;;;;5011704;28;20178;-73
2023/04/08 04:23:16;;;;;;;16.30;4.27;;;4.90;99.90;;;;;;5011275;28;20182;-74
2023/04/08 04:25:43;;;;;;;14.30;4.30;;;4.80;99.90;;;;;;5012049;28;20175;-73
2023/04/08 04:28:08;;;;;;;10.40;4.57;;;4.70;99.90;;;;;;5011139;28;20202;-73
2023/04/08 04:30:38;;;;;;;6.80;3.87;;;4.70;99.90;;;;;;5011604;28;20191;-73
2023/04/08 04:33:04;;;;;;;13.33;4.43;;;4.70;99.90;;;;;;5011839;28;20170;-73
2023/04/08 04:35:30;;;;;;;10.53;4.23;;;4.70;99.90;;;;;;5010716;28;20201;-73
2023/04/08 04:37:56;;;;;;;10.80;3.73;;;4.40;99.90;;;;;;5009257;28;20230;-72
2023/04/08 04:40:22;;;;;;;13.77;4.20;;;4.40;99.90;;;;;;5010823;28;20182;-73
2023/04/08 04:42:48;;;;;;;11.40;4.27;;;4.40;99.90;;;;;;5010050;28;20179;-72
2023/04/08 04:45:14;;;;;;;9.50;3.87;;;4.20;99.90;;;;;;5010553;28;20294;-73
2023/04/08 04:47:40;;;;;;;7.60;4.07;;;4.40;99.90;;;;;;5010430;28;20194;-72
2023/04/08 04:50:06;;;;;;;9.47;4.10;;;4.50;99.90;;;;;;5010872;28;20608;-72
2023/04/08 04:52:31;;;;;;;12.23;4.23;;;4.50;99.90;;;;;;5010041;28;20226;-73
2023/04/08 04:54:57;;;;;;;10.73;4.53;;;4.60;99.90;;;;;;5010716;28;20395;-73
2023/04/08 04:57:23;;;;;;;13.23;5.10;;;4.70;99.90;;;;;;5010770;28;20217;-70
2023/04/08 04:59:49;;;;;;;9.97;4.47;;;4.60;99.90;;;;;;5010872;28;20174;-72
2023/04/08 05:02:15;;;;;;;13.93;5.03;;;4.60;99.90;;;;;;5011120;28;20249;-72
2023/04/08 05:04:40;;;;;;;10.27;4.43;;;4.80;99.90;;;;;;5010232;28;20190;-72
2023/04/08 05:07:06;;;;;;;9.03;4.53;;;4.60;99.90;;;;;;5011177;28;20190;-73
2023/04/08 05:09:32;;;;;;;9.20;4.20;;;4.70;99.90;;;;;;5011260;28;20194;-72
2023/04/08 05:11:57;;;;;;;10.93;4.43;;;4.50;99.90;;;;;;5011189;28;20249;-74
2023/04/08 05:14:23;;;;;;;9.20;4.03;;;4.60;99.90;;;;;;5008945;28;20197;-72
2023/04/08 05:16:48;;;;;;;7.03;4.03;;;4.60;99.90;;;;;;5009822;28;20436;-72
2023/04/08 05:19:14;;;;;;;10.43;4.23;;;4.60;99.90;;;;;;5010244;28;20607;-73
2023/04/08 05:21:40;;;;;;;10.20;4.27;;;4.70;99.90;;;;;;5010723;28;20198;-73
2023/04/08 05:24:05;;;;;;;13.40;4.63;;;4.60;99.90;;;;;;5010591;28;20224;-72
2023/04/08 05:26:31;;;;;;;9.70;4.40;;;4.50;99.90;;;;;;5010742;28;20178;-74
2023/04/08 05:28:57;;;;;;;9.37;4.10;;;4.50;99.90;;;;;;5010446;28;20571;-74
2023/04/08 05:31:23;;;;;;;11.53;4.37;;;4.50;99.90;;;;;;5011160;28;20253;-75
2023/04/08 05:33:48;;;;;;;12.97;4.50;;;4.50;99.90;;;;;;5010351;28;20170;-75
2023/04/08 05:36:14;;;;;;;12.57;4.50;;;4.50;99.90;;;;;;5010024;28;20183;-73
2023/04/08 05:38:42;;;;;;;11.13;4.40;;;4.50;99.90;;;;;;5010529;28;20182;-75
2023/04/08 05:41:07;;;;;;;10.57;4.27;;;4.50;99.90;;;;;;5006471;28;20240;-74
2023/04/08 05:43:33;;;;;;;12.00;4.67;;;4.60;99.90;;;;;;5010386;28;20548;-73
2023/04/08 05:45:59;;;;;;;12.27;4.40;;;4.60;99.90;;;;;;5010477;28;20749;-73
2023/04/08 05:48:24;;;;;;;8.30;3.97;;;4.50;99.90;;;;;;5010467;28;20281;-71
2023/04/08 05:50:50;;;;;;;12.20;4.17;;;4.60;99.90;;;;;;5010361;28;20641;-74
2023/04/08 05:53:16;;;;;;;11.30;4.37;;;4.70;99.90;;;;;;5010295;28;20257;-73
2023/04/08 05:55:42;;;;;;;10.40;4.20;;;;;;;;;;5009302;28;20273;-74
2023/04/08 05:58:07;;;;;;;10.87;4.43;;;4.60;99.90;;;;;;5010413;28;20706;-74
2023/04/08 06:00:33;;;;;;;14.63;4.67;;;4.90;99.90;;;;;;5009850;28;20202;-74
2023/04/08 06:02:59;;;;;;;13.67;4.40;;;4.90;99.90;;;;;;5010204;28;20225;-73
2023/04/08 06:05:25;;;;;;;15.17;4.77;;;5.00;99.90;;;;;;5009351;28;20170;-73
2023/04/08 06:07:50;;;;;;;11.40;4.30;;;4.70;99.90;;;;;;5007424;28;20667;-71
2023/04/08 06:10:16;;;;;;;14.17;4.07;;;5.40;99.90;;;;;;5009306;28;20717;-77
2023/04/08 06:12:42;;;;;;;18.77;4.73;;;5.10;99.90;;;;;;5008871;28;20668;-75
2023/04/08 06:15:08;;;;;;;13.27;4.20;;;5.30;99.90;;;;;;5009482;28;20659;-73
2023/04/08 06:17:37;;;;;;;10.10;3.90;;;5.10;99.90;;;;;;5009010;28;20222;-74
2023/04/08 06:20:04;;;;;;;9.57;3.90;;;5.20;99.90;;;;;;5010400;28;20236;-74
2023/04/08 06:22:30;;;;;;;15.57;3.80;;;5.20;99.90;;;;;;5009873;28;20186;-74
2023/04/08 06:24:56;;;;;;;11.13;4.70;;;;;;;;;;5010015;28;20582;-75
2023/04/08 06:27:22;;;;;;;10.50;4.10;;;5.50;99.90;;;;;;5008081;28;20182;-83
2023/04/08 06:29:47;;;;;;;12.07;4.20;;;5.50;99.90;;;;;;5010332;28;20821;-71
2023/04/08 06:32:13;;;;;;;13.27;4.33;;;5.60;99.90;;;;;;5009372;28;20221;-72
2023/04/08 06:34:39;;;;;;;14.63;4.33;;;5.60;99.90;;;;;;5009124;28;20174;-72
2023/04/08 06:37:06;;;;;;;10.03;4.40;;;5.60;99.90;;;;;;5010094;28;20709;-72
2023/04/08 06:39:32;;;;;;;8.40;4.40;;;5.70;99.90;;;;;;5009602;28;20196;-71
2023/04/08 06:41:58;;;;;;;8.63;3.77;;;5.80;99.90;;;;;;5009268;28;20641;-71
2023/04/08 06:44:24;;;;;;;13.33;5.10;;;5.90;99.90;;;;;;5008541;28;20171;-70
2023/04/08 06:46:50;;;;;;;12.07;4.63;;;6.10;99.90;;;;;;5010313;28;20206;-70
2023/04/08 06:49:15;;;;;;;7.30;3.83;;;6.40;99.90;;;;;;5008675;28;20222;-71
2023/04/08 06:51:41;;;;;;;10.20;4.17;;;6.50;99.90;;;;;;5009707;28;20226;-71
2023/04/08 06:54:08;;;;;;;12.27;4.40;;;6.30;99.90;;;;;;5009161;28;20645;-76
2023/04/08 06:56:34;;;;;;;13.33;4.40;;;6.50;99.90;;;;;;5009821;28;20210;-75
2023/04/08 06:59:00;;;;;;;8.87;4.50;;;6.70;99.90;;;;;;5009107;28;20791;-74
2023/04/08 07:01:25;;;;;;;12.50;4.50;;;7.00;99.90;;;;;;5006904;28;20281;-76
2023/04/08 07:03:51;;;;;;;11.10;4.30;;;6.80;99.90;;;;;;5009620;28;20683;-75
2023/04/08 07:06:17;;;;;;;9.03;4.20;;;6.90;99.90;;;;;;5009292;28;20261;-75
2023/04/08 07:08:42;;;;;;;10.63;4.67;;;7.00;99.90;;;;;;5008891;28;20186;-74
2023/04/08 07:11:08;;;;;;;10.37;4.77;;;7.10;99.90;;;;;;5009269;28;20186;-75
2023/04/08 07:13:34;;;;;;;15.70;4.70;;;;;;;;;;5009601;28;20182;-72
2023/04/08 07:16:00;;;;;;;10.27;5.07;;;7.30;99.90;;;;;;5008523;28;20175;-73
2023/04/08 07:18:25;;;;;;;8.90;4.40;;;7.40;99.90;;;;;;5009174;28;20693;-70
2023/04/08 07:20:52;;;;;;;13.27;4.60;;;7.50;99.90;;;;;;5010187;28;20565;-70
2023/04/08 07:23:18;;;;;;;11.30;4.70;;;;;;;;;;5013416;28;20233;-70
2023/04/08 07:25:45;;;;;;;9.07;4.07;;;7.80;99.90;;;;;;5011683;28;20257;-69
2023/04/08 07:28:11;;;;;;;7.90;3.80;;;7.90;99.90;;;;;;5013181;28;20236;-70
2023/04/08 07:30:37;;;;;;;9.03;3.77;;;8.10;99.90;;;;;;5012020;28;20182;-69
2023/04/08 07:33:02;;;;;;;10.43;3.93;;;8.10;99.90;;;;;;5012402;28;20183;-70
2023/04/08 07:35:28;;;;;;;9.47;3.77;;;8.10;99.90;;;;;;5012106;28;20175;-70
2023/04/08 07:37:54;;;;;;;7.47;3.40;;;8.30;99.90;;;;;;5012047;28;20264;-70
2023/04/08 07:40:21;;;;;;;8.10;3.43;;;;;;;;;;5013173;28;20178;-70
2023/04/08 07:42:46;;;;;;;7.00;3.50;;;8.30;99.90;;;;;;5011935;28;20183;-70
2023/04/08 07:45:12;;;;;;;7.30;3.13;;;8.50;99.90;;;;;;5012903;28;20189;-70
2023/04/08 07:47:37;;;;;;;7.77;3.50;;;8.60;99.90;;;;;;5012540;28;20679;-70
2023/04/08 07:50:04;;;;;;;9.60;2.93;;;8.80;99.90;;;;;;5012959;28;20198;-71
2023/04/08 07:52:30;;;;;;;7.90;3.30;;;9.00;99.90;;;;;;5012622;28;20233;-68
2023/04/08 07:54:55;;;;;;;6.27;2.93;;;9.20;99.90;;;;;;5012153;28;20174;-70
2023/04/08 07:57:21;;;;;;;5.93;3.27;;;9.30;99.90;;;;;;5011641;28;20221;-70
2023/04/08 07:59:47;;;;;;;7.43;3.07;;;9.60;99.90;;;;;;5012395;28;20647;-70
2023/04/08 08:02:12;;;;;;;9.30;3.17;;;;;;;;;;5011714;28;20186;-70
2023/04/08 08:04:38;;;;;;;6.60;3.10;;;9.90;99.90;;;;;;5008278;28;20277;-70
2023/04/08 08:07:04;;;;;;;9.20;3.27;;;10.10;99.90;;;;;;5003346;28;20666;-71
2023/04/08 08:09:30;;;;;;;8.73;3.33;;;10.30;99.90;;;;;;5012279;28;20205;-71
2023/04/08 08:11:56;;;;;;;7.70;2.80;;;;;;;;;;5011776;28;20186;-71
2023/04/08 08:14:22;;;;;;;9.47;3.40;;;11.10;99.90;;;;;;5010959;28;20232;-72
2023/04/08 08:16:48;;;;;;;5.37;2.70;;;12.20;99.90;;;;;;5012201;28;20206;-67
2023/04/08 08:19:14;;;;;;;8.68;2.88;;;12.90;99.90;;;;;;5011261;28;20178;-72
2023/04/08 08:21:40;;;;;;;5.78;2.80;;;13.20;99.90;;;;;;5012580;28;20179;-82
2023/04/08 08:24:05;;;;;;;6.55;3.55;;;13.40;99.90;;;;;;5012254;28;20634;-83
2023/04/08 08:26:35;;;;;;;7.35;2.85;;;14.10;99.90;;;;;;5012865;28;20666;-75
2023/04/08 08:29:01;;;;;;;4.75;2.53;;;14.30;99.90;;;;;;5011288;28;20638;-75
2023/04/08 08:31:26;;;;;;;6.88;2.90;;;14.60;99.90;;;;;;5009073;28;20183;-74
2023/04/08 08:33:52;;;;;;;6.28;2.72;;;15.00;99.90;;;;;;5011390;28;20179;-75
2023/04/08 08:36:18;;;;;;;5.32;2.70;;;15.00;99.90;;;;;;5010175;28;20179;-74
2023/04/08 08:38:43;;;;;;;5.47;2.33;;;15.80;99.90;;;;;;5010100;28;20248;-74
2023/04/08 08:41:09;;;;;;;8.48;3.17;;;16.80;99.90;;;;;;5009583;28;20179;-75
2023/04/08 08:43:35;;;;;;;4.45;2.42;;;17.70;99.90;;;;;;5011532;28;20290;-75
2023/04/08 08:46:01;;;;;;;4.43;2.20;;;18.40;99.90;;;;;;5009701;28;20182;-76
2023/04/08 08:48:26;;;;;;;6.15;2.50;;;18.40;99.90;;;;;;5009909;28;20181;-75
2023/04/08 08:50:52;;;;;;;5.63;2.70;;;18.60;99.90;;;;;;5010749;28;20174;-75
2023/04/08 08:53:19;;;;;;;3.95;2.28;;;18.00;99.90;;;;;;5008748;28;20237;-75
2023/04/08 08:55:45;;;;;;;6.20;2.55;;;18.50;99.90;;;;;;5011607;28;20171;-76
2023/04/08 08:58:10;;;;;;;6.47;2.08;;;18.40;99.90;;;;;;5010382;28;20229;-76
2023/04/08 09:00:39;;;;;;;6.22;2.33;;;16.80;99.90;;;;;;5011224;28;20205;-75
2023/04/08 09:03:15;;;;;;;6.80;2.08;;;16.40;99.90;;;;;;5008517;28;20633;-74
2023/04/08 09:05:58;;;;;;;9.57;2.30;;;16.40;99.90;;;;;;5010926;28;20273;-74
2023/04/08 09:08:31;;;;;;;8.07;2.40;;;16.30;99.90;;;;;;5009555;28;20197;-75
2023/04/08 09:11:17;;;;;;;4.80;2.20;;;16.40;99.90;;;;;;5009713;28;20182;-76
2023/04/08 09:13:45;;;;;;;4.63;2.15;;;17.40;99.90;;;;;;5010671;28;20264;-74
2023/04/08 09:16:12;;;;;;;6.82;2.63;;;17.40;99.90;;;;;;5010210;28;20592;-75
2023/04/08 09:18:39;;;;;;;6.10;2.78;;;17.00;99.90;;;;;;5006979;28;20290;-75
2023/04/08 09:21:06;;;;;;;6.15;2.50;;;17.30;99.90;;;;;;5010946;28;20277;-75
2023/04/08 09:23:39;;;;;;;7.00;2.83;;;17.00;99.90;;;;;;5010895;28;20186;-75
2023/04/08 09:26:23;;;;;;;7.10;2.78;;;17.60;99.90;;;;;;5010933;28;20232;-75
2023/04/08 09:29:06;;;;;;;8.32;2.80;;;18.10;99.90;;;;;;5008847;28;20186;-75
2023/04/08 09:31:39;;;;;;;6.43;2.85;;;17.70;99.90;;;;;;5010873;28;20265;-75
2023/04/08 09:34:19;;;;;;;3.83;2.40;;;17.80;99.90;;;;;;5011257;28;20193;-75
2023/04/08 09:36:46;;;;;;;6.68;2.50;;;17.70;99.90;;;;;;5010095;28;20260;-75
2023/04/08 09:39:11;;;;;;;7.85;2.90;;;17.60;99.90;;;;;;5010470;28;20189;-74
2023/04/08 09:41:38;;;;;;;6.00;2.65;;;17.50;99.90;;;;;;5010226;28;20277;-75
2023/04/08 09:44:06;;;;;;;5.90;2.58;;;17.60;99.90;;;;;;5009814;28;20692;-75
2023/04/08 09:46:44;;;;;;;7.05;2.90;;;17.50;99.90;;;;;;5009024;28;20252;-75
2023/04/08 09:49:26;;;;;;;5.00;2.40;;;17.10;99.90;;;;;;5002198;28;20800;-75
2023/04/08 09:52:06;;;;;;;6.95;2.95;;;17.10;99.90;;;;;;5009813;28;20304;-74
2023/04/08 09:54:52;;;;;;;6.75;2.50;;;17.80;99.90;;;;;;5007031;28;20235;-75
2023/04/08 09:57:41;;;;;;;5.15;2.58;;;17.80;99.90;;;;;;5007226;28;20218;-74
2023/04/08 10:00:13;;;;;;;7.45;2.65;;;18.20;99.90;;;;;;5009231;28;20270;-74
2023/04/08 10:03:21;;;;;;;4.38;2.30;;;18.20;99.90;;;;;;5009774;28;20194;-76
2023/04/08 10:05:48;;;;;;;6.70;1.80;;;17.00;99.90;;;;;;4989070;28;20194;-74
2023/04/08 10:08:15;;;;;;;8.38;2.25;;;16.70;99.90;;;;;;5010164;28;20198;-75
2023/04/08 10:10:41;;;;;;;6.78;2.67;;;16.10;99.90;;;;;;5010302;28;20229;-74
2023/04/08 10:13:07;;;;;;;7.25;2.97;;;16.70;99.90;;;;;;5009343;28;20645;-75
2023/04/08 10:15:35;;;;;;;8.23;2.83;;;16.50;99.90;;;;;;5008738;28;20213;-74
2023/04/08 10:18:04;;;;;;;5.53;2.40;;;16.70;99.90;;;;;;5008914;28;20218;-73
2023/04/08 10:20:36;;;;;;;7.20;2.80;;;15.80;99.90;;;;;;5009502;28;20242;-73
2023/04/08 10:23:06;;;;;;;4.93;2.53;;;15.70;99.90;;;;;;5008512;28;20178;-74
2023/04/08 10:25:36;;;;;;;4.68;2.40;;;15.80;99.90;;;;;;5005623;28;20216;-75
2023/04/08 10:28:22;;;;;;;5.45;2.47;;;15.80;99.90;;;;;;5008049;28;20186;-74
2023/04/08 10:30:55;;;;;;;7.47;2.88;;;16.60;99.90;;;;;;5008102;28;20194;-74
2023/04/08 10:33:33;;;;;;;4.18;2.38;;;17.20;99.90;;;;;;5009055;28;20182;-74
2023/04/08 10:36:13;;;;;;;6.38;2.28;;;16.90;99.90;;;;;;5009011;28;20275;-73
2023/04/08 10:38:43;;;;;;;5.22;2.65;;;17.00;99.90;;;;;;5009907;28;20570;-74
2023/04/08 10:41:12;;;;;;;3.38;2.05;;;17.70;99.90;;;;;;5008961;28;20185;-72
2023/04/08 10:43:38;;;;;;;5.22;2.30;;;17.60;99.90;;;;;;5008974;28;20640;-73
2023/04/08 10:46:04;;;;;;;4.55;2.55;;;18.90;99.90;;;;;;5009963;28;20206;-74
2023/04/08 10:48:30;;;;;;;3.35;2.10;;;19.10;99.90;;;;;;5009594;28;20798;-74
2023/04/08 10:51:00;;;;;;;4.93;2.25;;;19.00;99.90;;;;;;5009861;28;20274;-74
2023/04/08 10:53:37;;;;;;;6.22;2.20;;;19.80;99.90;;;;;;5009654;28;20214;-74
2023/04/08 10:56:12;;;;;;;4.63;2.15;;;19.30;99.90;;;;;;5005380;28;20661;-74
2023/04/08 10:58:51;;;;;;;5.47;2.05;;;19.30;99.90;;;;;;5013343;28;20214;-73
2023/04/08 11:01:17;;;;;;;3.80;2.00;;;18.90;99.90;;;;;;5007984;28;20221;-74
2023/04/08 11:03:43;;;;;;;6.05;2.22;;;19.40;99.90;;;;;;5012834;28;20265;-74
2023/04/08 11:06:10;;;;;;;7.90;2.55;;;20.10;99.90;;;;;;5012723;28;20672;-72
2023/04/08 11:08:36;;;;;;;4.65;2.00;;;20.30;90.30;;;;;;5013324;28;20170;-74
2023/04/08 11:11:04;;;;;;;5.85;2.10;;;20.30;90.60;;;;;;5013973;28;20665;-74
2023/04/08 11:13:30;;;;;;;6.70;2.40;;;20.60;90.00;;;;;;5011406;28;20260;-75
2023/04/08 11:15:58;;;;;;;4.50;2.25;;;21.70;71.70;;;;;;5013634;28;20191;-73
2023/04/08 11:18:24;;;;;;;5.05;2.40;;;21.70;58.00;;;;;;5009518;28;20710;-74
2023/04/08 11:20:51;;;;;;;5.72;2.60;;;20.80;69.40;;;;;;5013310;28;20183;-73
2023/04/08 11:23:17;;;;;;;4.90;2.22;;;20.60;63.10;;;;;;5011797;28;20183;-74
2023/04/08 11:25:45;;;;;;;5.22;2.40;;;20.90;44.80;;;;;;5011593;28;20174;-74
2023/04/08 11:28:12;;;;;;;5.25;2.40;;;20.90;45.00;;;;;;5010370;28;20282;-74
2023/04/08 11:30:39;;;;;;;4.07;2.92;;;19.30;56.40;;;;;;5011542;28;20175;-73
2023/04/08 11:33:05;;;;;;;5.25;2.65;;;18.40;89.20;;;;;;5010809;28;20578;-73
2023/04/08 11:35:31;;;;;;;6.82;2.33;;;17.10;99.90;;;;;;5011008;28;20171;-73
2023/04/08 11:37:57;;;;;;;6.22;2.80;;;16.90;99.90;;;;;;5008440;28;20699;-73
2023/04/08 11:40:23;;;;;;;8.02;2.78;;;17.10;99.90;;;;;;5010476;28;20174;-73
2023/04/08 11:42:50;;;;;;;4.53;2.38;;;17.00;99.90;;;;;;5009940;28;20183;-73
2023/04/08 11:45:18;;;;;;;5.90;2.78;;;16.40;99.90;;;;;;5009057;28;20216;-73
2023/04/08 11:47:45;;;;;;;4.45;2.38;;;16.20;99.90;;;;;;5013254;28;20194;-73
2023/04/08 11:50:11;;;;;;;5.95;2.30;;;16.10;99.90;;;;;;5012766;28;20178;-73
2023/04/08 11:52:43;;;;;;;8.05;2.60;;;16.50;99.90;;;;;;5012868;28;20276;-73
2023/04/08 11:55:20;;;;;;;5.10;2.95;;;17.20;99.90;;;;;;5012781;28;20194;-73
2023/04/08 11:57:47;;;;;;;4.93;2.47;;;18.10;99.90;;;;;;5012588;28;20222;-74
2023/04/08 12:00:13;;;;;;;4.40;2.30;;;18.60;99.90;;;;;;5012728;28;20397;-75
2023/04/08 12:02:39;;;;;;;4.90;2.50;;;18.30;99.90;;;;;;5012798;28;20206;-75
2023/04/08 12:05:05;;;;;;;5.95;2.22;;;19.20;93.50;;;;;;5012030;28;20173;-75
2023/04/08 12:07:31;;;;;;;5.13;2.80;;;20.20;50.70;;;;;;5010627;28;20225;-74
2023/04/08 12:09:57;;;;;;;5.05;2.20;;;18.90;72.40;;;;;;5012335;28;20162;-74
2023/04/08 12:12:22;;;;;;;6.00;2.28;;;17.50;86.40;;;;;;5011172;28;20174;-74
2023/04/08 12:14:48;;;;;;;4.53;1.90;;;17.40;95.80;;;;;;5012441;28;20650;-74
2023/04/08 12:17:14;;;;;;;7.40;2.60;;;17.60;96.00;;;;;;5012080;28;20351;-74
2023/04/08 12:19:40;;;;;;;7.75;2.60;;;18.30;98.30;;;;;;5010913;28;20206;-74
2023/04/08 12:22:06;;;;;;;5.78;2.63;;;;;;;;;;5011051;28;20194;-75
2023/04/08 12:24:32;;;;;;;4.47;2.35;;;18.60;65.10;;;;;;5011619;28;20179;-76
2023/04/08 12:26:57;;;;;;;4.57;2.40;;;18.60;57.00;;;;;;5010463;28;20928;-74
2023/04/08 12:29:23;;;;;;;5.35;2.50;;;19.00;45.40;;;;;;5011615;28;20388;-73
2023/04/08 12:31:49;;;;;;;7.28;2.60;;;18.50;41.70;;;;;;5009105;28;20260;-73
2023/04/08 12:34:15;;;;;;;3.35;1.90;;;17.60;39.50;;;;;;5010786;28;20312;-73
2023/04/08 12:36:43;;;;;;;6.80;2.38;;;17.70;35.70;;;;;;5011095;28;20226;-73
2023/04/08 12:39:09;;;;;;;5.22;2.15;;;18.70;29.70;;;;;;5010006;28;20289;-74
2023/04/08 12:41:35;;;;;;;5.90;2.75;;;18.80;25.00;;;;;;5009665;28;20257;-73
2023/04/08 12:44:00;;;;;;;3.30;2.05;;;18.80;24.80;;;;;;5010047;28;20196;-74
2023/04/08 12:46:27;;;;;;;5.68;2.20;;;18.50;19.20;;;;;;5011117;28;20210;-73
2023/04/08 12:48:53;;;;;;;7.38;2.30;;;20.10;30.70;;;;;;5010918;28;20185;-74
2023/04/08 12:51:19;;;;;;;3.45;2.30;;;20.50;32.60;;;;;;5011043;28;20222;-74
2023/04/08 12:53:44;;;;;;;4.60;2.00;;;21.50;1.00;;;;;;5010848;28;20206;-74